sensor_id;sensor_type;location;lat;lon;timestamp;P1;durP1;ratioP1;P2;durP2;ratioP2
6725;SDS011;3400;48.506;11.692;2023-02-19T00:01:40;2.07;;;1.97;;
6725;SDS011;3400;48.506;11.692;2023-02-19T00:04:10;2.93;;;2.00;;
6725;SDS011;3400;48.506;11.692;2023-02-19T00:06:39;2.43;;;2.23;;
6725;SDS011;3400;48.506;11.692;2023-02-19T00:09:08;2.60;;;2.40;;
6725;SDS011;3400;48.506;11.692;2023-02-19T00:11:36;2.23;;;2.13;;
6725;SDS011;3400;48.506;11.692;2023-02-19T00:14:05;2.50;;;2.03;;
6725;SDS011;3400;48.506;11.692;2023-02-19T00:16:34;3.10;;;2.10;;
6725;SDS011;3400;48.506;11.692;2023-02-19T00:19:04;2.23;;;2.03;;
6725;SDS011;3400;48.506;11.692;2023-02-19T00:21:32;2.70;;;1.97;;
6725;SDS011;3400;48.506;11.692;2023-02-19T00:24:01;2.23;;;2.03;;
6725;SDS011;3400;48.506;11.692;2023-02-19T00:26:29;2.43;;;2.23;;
6725;SDS011;3400;48.506;11.692;2023-02-19T00:28:57;3.00;;;2.13;;
6725;SDS011;3400;48.506;11.692;2023-02-19T00:31:27;2.23;;;2.03;;
6725;SDS011;3400;48.506;11.692;2023-02-19T00:33:56;3.83;;;1.97;;
6725;SDS011;3400;48.506;11.692;2023-02-19T00:36:24;2.63;;;2.10;;
6725;SDS011;3400;48.506;11.692;2023-02-19T00:38:53;2.67;;;2.10;;
6725;SDS011;3400;48.506;11.692;2023-02-19T00:41:21;3.80;;;2.17;;
6725;SDS011;3400;48.506;11.692;2023-02-19T00:43:50;1.80;;;1.70;;
6725;SDS011;3400;48.506;11.692;2023-02-19T00:46:21;2.23;;;2.03;;
6725;SDS011;3400;48.506;11.692;2023-02-19T00:48:50;2.10;;;2.00;;
6725;SDS011;3400;48.506;11.692;2023-02-19T00:51:18;3.57;;;1.90;;
6725;SDS011;3400;48.506;11.692;2023-02-19T00:53:47;2.50;;;1.90;;
6725;SDS011;3400;48.506;11.692;2023-02-19T00:56:15;3.80;;;2.00;;
6725;SDS011;3400;48.506;11.692;2023-02-19T00:58:43;1.77;;;1.67;;
6725;SDS011;3400;48.506;11.692;2023-02-19T01:01:11;1.93;;;1.80;;
6725;SDS011;3400;48.506;11.692;2023-02-19T01:03:39;1.57;;;1.47;;
6725;SDS011;3400;48.506;11.692;2023-02-19T01:06:09;3.37;;;1.90;;
6725;SDS011;3400;48.506;11.692;2023-02-19T01:08:37;2.00;;;1.80;;
6725;SDS011;3400;48.506;11.692;2023-02-19T01:11:05;1.67;;;1.57;;
6725;SDS011;3400;48.506;11.692;2023-02-19T01:13:34;1.60;;;1.50;;
6725;SDS011;3400;48.506;11.692;2023-02-19T01:16:02;1.73;;;1.47;;
6725;SDS011;3400;48.506;11.692;2023-02-19T01:18:30;1.30;;;1.20;;
6725;SDS011;3400;48.506;11.692;2023-02-19T01:20:58;1.70;;;1.53;;
6725;SDS011;3400;48.506;11.692;2023-02-19T01:23:27;1.60;;;1.50;;
6725;SDS011;3400;48.506;11.692;2023-02-19T01:25:55;1.50;;;1.40;;
6725;SDS011;3400;48.506;11.692;2023-02-19T01:28:23;1.60;;;1.50;;
6725;SDS011;3400;48.506;11.692;2023-02-19T01:30:51;2.60;;;1.30;;
6725;SDS011;3400;48.506;11.692;2023-02-19T01:33:19;3.30;;;1.33;;
6725;SDS011;3400;48.506;11.692;2023-02-19T01:35:47;1.33;;;1.27;;
6725;SDS011;3400;48.506;11.692;2023-02-19T01:38:15;1.80;;;1.70;;
6725;SDS011;3400;48.506;11.692;2023-02-19T01:40:44;1.70;;;1.60;;
6725;SDS011;3400;48.506;11.692;2023-02-19T01:43:13;1.53;;;1.43;;
6725;SDS011;3400;48.506;11.692;2023-02-19T01:45:42;1.47;;;1.37;;
6725;SDS011;3400;48.506;11.692;2023-02-19T01:48:10;1.93;;;1.30;;
6725;SDS011;3400;48.506;11.692;2023-02-19T01:50:40;2.13;;;1.43;;
6725;SDS011;3400;48.506;11.692;2023-02-19T01:53:09;1.57;;;1.40;;
6725;SDS011;3400;48.506;11.692;2023-02-19T01:55:38;1.80;;;1.70;;
6725;SDS011;3400;48.506;11.692;2023-02-19T01:58:08;2.90;;;1.83;;
6725;SDS011;3400;48.506;11.692;2023-02-19T02:00:37;3.30;;;2.03;;
6725;SDS011;3400;48.506;11.692;2023-02-19T02:03:05;1.87;;;1.63;;
6725;SDS011;3400;48.506;11.692;2023-02-19T02:05:36;2.77;;;1.40;;
6725;SDS011;3400;48.506;11.692;2023-02-19T02:08:06;1.63;;;1.50;;
6725;SDS011;3400;48.506;11.692;2023-02-19T02:10:52;3.73;;;1.97;;
6725;SDS011;3400;48.506;11.692;2023-02-19T02:13:22;2.37;;;2.00;;
6725;SDS011;3400;48.506;11.692;2023-02-19T02:15:53;1.60;;;1.50;;
6725;SDS011;3400;48.506;11.692;2023-02-19T02:18:30;2.10;;;1.90;;
6725;SDS011;3400;48.506;11.692;2023-02-19T02:21:13;2.40;;;1.50;;
6725;SDS011;3400;48.506;11.692;2023-02-19T02:23:49;1.60;;;1.50;;
6725;SDS011;3400;48.506;11.692;2023-02-19T02:29:20;2.33;;;1.67;;
6725;SDS011;3400;48.506;11.692;2023-02-19T02:31:54;3.43;;;1.93;;
6725;SDS011;3400;48.506;11.692;2023-02-19T02:34:24;2.10;;;2.00;;
6725;SDS011;3400;48.506;11.692;2023-02-19T02:36:54;1.93;;;1.80;;
6725;SDS011;3400;48.506;11.692;2023-02-19T02:39:23;2.10;;;1.93;;
6725;SDS011;3400;48.506;11.692;2023-02-19T02:41:54;1.57;;;1.47;;
6725;SDS011;3400;48.506;11.692;2023-02-19T02:44:40;1.90;;;1.80;;
6725;SDS011;3400;48.506;11.692;2023-02-19T02:47:32;2.50;;;1.90;;
6725;SDS011;3400;48.506;11.692;2023-02-19T02:50:08;1.97;;;1.87;;
6725;SDS011;3400;48.506;11.692;2023-02-19T02:52:38;2.17;;;1.53;;
6725;SDS011;3400;48.506;11.692;2023-02-19T02:55:25;2.00;;;1.80;;
6725;SDS011;3400;48.506;11.692;2023-02-19T02:57:55;1.40;;;1.30;;
6725;SDS011;3400;48.506;11.692;2023-02-19T03:00:23;1.77;;;1.67;;
6725;SDS011;3400;48.506;11.692;2023-02-19T03:03:14;1.50;;;1.40;;
6725;SDS011;3400;48.506;11.692;2023-02-19T03:05:44;1.60;;;1.50;;
6725;SDS011;3400;48.506;11.692;2023-02-19T03:08:20;1.70;;;1.60;;
6725;SDS011;3400;48.506;11.692;2023-02-19T03:10:50;2.17;;;1.97;;
6725;SDS011;3400;48.506;11.692;2023-02-19T03:13:20;1.50;;;1.40;;
6725;SDS011;3400;48.506;11.692;2023-02-19T03:16:07;2.70;;;1.60;;
6725;SDS011;3400;48.506;11.692;2023-02-19T03:18:56;1.87;;;1.73;;
6725;SDS011;3400;48.506;11.692;2023-02-19T03:21:42;3.00;;;2.30;;
6725;SDS011;3400;48.506;11.692;2023-02-19T03:24:11;1.77;;;1.67;;
6725;SDS011;3400;48.506;11.692;2023-02-19T03:26:58;1.93;;;1.83;;
6725;SDS011;3400;48.506;11.692;2023-02-19T03:29:31;2.83;;;2.00;;
6725;SDS011;3400;48.506;11.692;2023-02-19T03:32:03;1.73;;;1.63;;
6725;SDS011;3400;48.506;11.692;2023-02-19T03:34:34;2.27;;;2.07;;
6725;SDS011;3400;48.506;11.692;2023-02-19T03:37:05;3.17;;;2.10;;
6725;SDS011;3400;48.506;11.692;2023-02-19T03:39:35;4.67;;;2.33;;
6725;SDS011;3400;48.506;11.692;2023-02-19T03:42:14;3.50;;;1.97;;
6725;SDS011;3400;48.506;11.692;2023-02-19T03:44:45;2.30;;;2.10;;
6725;SDS011;3400;48.506;11.692;2023-02-19T03:47:18;2.00;;;1.80;;
6725;SDS011;3400;48.506;11.692;2023-02-19T03:49:50;2.30;;;1.90;;
6725;SDS011;3400;48.506;11.692;2023-02-19T03:52:22;3.23;;;1.97;;
6725;SDS011;3400;48.506;11.692;2023-02-19T03:54:53;2.10;;;1.97;;
6725;SDS011;3400;48.506;11.692;2023-02-19T03:57:27;2.10;;;1.90;;
6725;SDS011;3400;48.506;11.692;2023-02-19T03:59:59;2.17;;;1.97;;
6725;SDS011;3400;48.506;11.692;2023-02-19T04:02:39;1.80;;;1.70;;
6725;SDS011;3400;48.506;11.692;2023-02-19T04:05:10;1.70;;;1.60;;
6725;SDS011;3400;48.506;11.692;2023-02-19T04:07:41;1.90;;;1.80;;
6725;SDS011;3400;48.506;11.692;2023-02-19T04:10:12;2.13;;;2.03;;
6725;SDS011;3400;48.506;11.692;2023-02-19T04:12:44;4.10;;;2.43;;
6725;SDS011;3400;48.506;11.692;2023-02-19T04:15:15;1.93;;;1.70;;
6725;SDS011;3400;48.506;11.692;2023-02-19T04:17:45;2.30;;;2.10;;
6725;SDS011;3400;48.506;11.692;2023-02-19T04:22:45;2.10;;;2.00;;
6725;SDS011;3400;48.506;11.692;2023-02-19T04:25:13;2.43;;;2.20;;
6725;SDS011;3400;48.506;11.692;2023-02-19T04:27:40;2.40;;;2.20;;
6725;SDS011;3400;48.506;11.692;2023-02-19T04:30:11;2.60;;;2.40;;
6725;SDS011;3400;48.506;11.692;2023-02-19T04:32:39;2.43;;;2.23;;
6725;SDS011;3400;48.506;11.692;2023-02-19T04:35:07;2.97;;;2.57;;
6725;SDS011;3400;48.506;11.692;2023-02-19T04:37:35;2.60;;;2.40;;
6725;SDS011;3400;48.506;11.692;2023-02-19T04:40:05;2.73;;;2.50;;
6725;SDS011;3400;48.506;11.692;2023-02-19T04:42:33;2.40;;;2.20;;
6725;SDS011;3400;48.506;11.692;2023-02-19T04:45:01;2.13;;;1.90;;
6725;SDS011;3400;48.506;11.692;2023-02-19T04:47:30;2.77;;;2.57;;
6725;SDS011;3400;48.506;11.692;2023-02-19T04:49:57;2.40;;;2.20;;
6725;SDS011;3400;48.506;11.692;2023-02-19T04:52:25;2.80;;;2.60;;
6725;SDS011;3400;48.506;11.692;2023-02-19T04:54:53;3.27;;;2.40;;
6725;SDS011;3400;48.506;11.692;2023-02-19T04:57:22;3.90;;;2.20;;
6725;SDS011;3400;48.506;11.692;2023-02-19T04:59:50;2.10;;;2.00;;
6725;SDS011;3400;48.506;11.692;2023-02-19T05:02:18;2.30;;;2.10;;
6725;SDS011;3400;48.506;11.692;2023-02-19T05:04:46;3.50;;;2.57;;
6725;SDS011;3400;48.506;11.692;2023-02-19T05:07:14;1.83;;;1.73;;
6725;SDS011;3400;48.506;11.692;2023-02-19T05:09:42;2.97;;;2.13;;
6725;SDS011;3400;48.506;11.692;2023-02-19T05:12:09;4.03;;;2.27;;
6725;SDS011;3400;48.506;11.692;2023-02-19T05:14:39;2.40;;;2.20;;
6725;SDS011;3400;48.506;11.692;2023-02-19T05:17:07;2.77;;;2.40;;
6725;SDS011;3400;48.506;11.692;2023-02-19T05:19:34;2.67;;;2.47;;
6725;SDS011;3400;48.506;11.692;2023-02-19T05:22:02;2.30;;;2.10;;
6725;SDS011;3400;48.506;11.692;2023-02-19T05:24:30;2.97;;;2.13;;
6725;SDS011;3400;48.506;11.692;2023-02-19T05:26:58;5.03;;;1.97;;
6725;SDS011;3400;48.506;11.692;2023-02-19T05:29:26;3.83;;;2.20;;
6725;SDS011;3400;48.506;11.692;2023-02-19T05:31:55;2.30;;;2.10;;
6725;SDS011;3400;48.506;11.692;2023-02-19T05:34:23;2.50;;;2.30;;
6725;SDS011;3400;48.506;11.692;2023-02-19T05:36:51;2.80;;;2.50;;
6725;SDS011;3400;48.506;11.692;2023-02-19T05:39:19;2.90;;;2.37;;
6725;SDS011;3400;48.506;11.692;2023-02-19T05:41:46;2.30;;;2.10;;
6725;SDS011;3400;48.506;11.692;2023-02-19T05:44:14;2.27;;;2.00;;
6725;SDS011;3400;48.506;11.692;2023-02-19T05:46:42;1.90;;;1.80;;
6725;SDS011;3400;48.506;11.692;2023-02-19T05:49:11;2.60;;;2.40;;
6725;SDS011;3400;48.506;11.692;2023-02-19T05:51:39;2.47;;;2.23;;
6725;SDS011;3400;48.506;11.692;2023-02-19T05:54:07;2.80;;;2.60;;
6725;SDS011;3400;48.506;11.692;2023-02-19T05:56:36;3.07;;;2.23;;
6725;SDS011;3400;48.506;11.692;2023-02-19T05:59:05;2.50;;;2.30;;
6725;SDS011;3400;48.506;11.692;2023-02-19T06:01:33;2.33;;;2.13;;
6725;SDS011;3400;48.506;11.692;2023-02-19T06:04:01;2.30;;;2.10;;
6725;SDS011;3400;48.506;11.692;2023-02-19T06:06:31;2.30;;;2.10;;
6725;SDS011;3400;48.506;11.692;2023-02-19T06:08:59;2.70;;;2.50;;
6725;SDS011;3400;48.506;11.692;2023-02-19T06:11:27;2.93;;;2.43;;
6725;SDS011;3400;48.506;11.692;2023-02-19T06:13:55;2.43;;;2.23;;
6725;SDS011;3400;48.506;11.692;2023-02-19T06:16:23;2.53;;;2.33;;
6725;SDS011;3400;48.506;11.692;2023-02-19T06:18:51;2.33;;;2.13;;
6725;SDS011;3400;48.506;11.692;2023-02-19T06:21:19;2.33;;;1.97;;
6725;SDS011;3400;48.506;11.692;2023-02-19T06:23:48;2.53;;;2.30;;
6725;SDS011;3400;48.506;11.692;2023-02-19T06:26:16;2.43;;;2.20;;
6725;SDS011;3400;48.506;11.692;2023-02-19T06:28:45;2.67;;;2.37;;
6725;SDS011;3400;48.506;11.692;2023-02-19T06:31:13;2.27;;;2.07;;
6725;SDS011;3400;48.506;11.692;2023-02-19T06:33:41;2.30;;;2.10;;
6725;SDS011;3400;48.506;11.692;2023-02-19T06:36:10;2.47;;;2.27;;
6725;SDS011;3400;48.506;11.692;2023-02-19T06:38:38;2.73;;;2.10;;
6725;SDS011;3400;48.506;11.692;2023-02-19T06:41:08;2.53;;;2.10;;
6725;SDS011;3400;48.506;11.692;2023-02-19T06:43:36;3.43;;;2.80;;
6725;SDS011;3400;48.506;11.692;2023-02-19T06:46:04;2.87;;;2.47;;
6725;SDS011;3400;48.506;11.692;2023-02-19T06:48:33;2.73;;;2.53;;
6725;SDS011;3400;48.506;11.692;2023-02-19T06:51:01;2.97;;;2.70;;
6725;SDS011;3400;48.506;11.692;2023-02-19T06:53:29;3.07;;;2.80;;
6725;SDS011;3400;48.506;11.692;2023-02-19T06:55:57;2.77;;;2.50;;
6725;SDS011;3400;48.506;11.692;2023-02-19T06:58:27;2.80;;;2.60;;
6725;SDS011;3400;48.506;11.692;2023-02-19T07:00:55;2.17;;;2.07;;
6725;SDS011;3400;48.506;11.692;2023-02-19T07:03:23;3.13;;;2.90;;
6725;SDS011;3400;48.506;11.692;2023-02-19T07:05:52;4.23;;;3.50;;
6725;SDS011;3400;48.506;11.692;2023-02-19T07:08:20;4.57;;;2.90;;
6725;SDS011;3400;48.506;11.692;2023-02-19T07:10:52;2.73;;;2.53;;
6725;SDS011;3400;48.506;11.692;2023-02-19T07:13:21;3.17;;;2.67;;
6725;SDS011;3400;48.506;11.692;2023-02-19T07:15:50;2.83;;;2.63;;
6725;SDS011;3400;48.506;11.692;2023-02-19T07:18:18;3.90;;;2.77;;
6725;SDS011;3400;48.506;11.692;2023-02-19T07:20:46;3.30;;;2.93;;
6725;SDS011;3400;48.506;11.692;2023-02-19T07:23:14;2.83;;;2.63;;
6725;SDS011;3400;48.506;11.692;2023-02-19T07:25:41;3.20;;;3.00;;
6725;SDS011;3400;48.506;11.692;2023-02-19T07:28:09;3.30;;;3.10;;
6725;SDS011;3400;48.506;11.692;2023-02-19T07:30:37;2.20;;;2.10;;
6725;SDS011;3400;48.506;11.692;2023-02-19T07:33:07;1.83;;;1.73;;
6725;SDS011;3400;48.506;11.692;2023-02-19T07:35:35;1.57;;;1.57;;
6725;SDS011;3400;48.506;11.692;2023-02-19T07:38:02;2.00;;;1.40;;
6725;SDS011;3400;48.506;11.692;2023-02-19T07:40:30;1.37;;;1.33;;
6725;SDS011;3400;48.506;11.692;2023-02-19T07:42:59;0.93;;;0.93;;
6725;SDS011;3400;48.506;11.692;2023-02-19T07:45:27;0.87;;;0.87;;
6725;SDS011;3400;48.506;11.692;2023-02-19T07:47:55;0.70;;;0.70;;
6725;SDS011;3400;48.506;11.692;2023-02-19T07:50:24;0.83;;;0.83;;
6725;SDS011;3400;48.506;11.692;2023-02-19T07:52:52;0.80;;;0.70;;
6725;SDS011;3400;48.506;11.692;2023-02-19T07:55:19;0.80;;;0.80;;
6725;SDS011;3400;48.506;11.692;2023-02-19T07:57:47;0.73;;;0.73;;
6725;SDS011;3400;48.506;11.692;2023-02-19T08:00:15;1.10;;;1.00;;
6725;SDS011;3400;48.506;11.692;2023-02-19T08:02:43;0.93;;;0.93;;
6725;SDS011;3400;48.506;11.692;2023-02-19T08:05:27;0.90;;;0.90;;
6725;SDS011;3400;48.506;11.692;2023-02-19T08:07:56;1.23;;;1.03;;
6725;SDS011;3400;48.506;11.692;2023-02-19T08:10:24;3.60;;;0.90;;
6725;SDS011;3400;48.506;11.692;2023-02-19T08:13:10;0.80;;;0.80;;
6725;SDS011;3400;48.506;11.692;2023-02-19T08:15:51;0.70;;;0.70;;
6725;SDS011;3400;48.506;11.692;2023-02-19T08:18:20;0.87;;;0.80;;
6725;SDS011;3400;48.506;11.692;2023-02-19T08:20:49;3.47;;;1.17;;
6725;SDS011;3400;48.506;11.692;2023-02-19T08:23:17;0.80;;;0.80;;
6725;SDS011;3400;48.506;11.692;2023-02-19T08:25:46;0.70;;;0.70;;
6725;SDS011;3400;48.506;11.692;2023-02-19T08:28:14;0.70;;;0.70;;
6725;SDS011;3400;48.506;11.692;2023-02-19T08:30:43;0.70;;;0.70;;
6725;SDS011;3400;48.506;11.692;2023-02-19T08:33:14;2.87;;;0.40;;
6725;SDS011;3400;48.506;11.692;2023-02-19T08:35:42;0.63;;;0.57;;
6725;SDS011;3400;48.506;11.692;2023-02-19T08:38:12;0.50;;;0.50;;
6725;SDS011;3400;48.506;11.692;2023-02-19T08:40:41;0.47;;;0.47;;
6725;SDS011;3400;48.506;11.692;2023-02-19T08:43:09;0.43;;;0.43;;
6725;SDS011;3400;48.506;11.692;2023-02-19T08:45:38;0.30;;;0.30;;
6725;SDS011;3400;48.506;11.692;2023-02-19T08:48:06;0.43;;;0.43;;
6725;SDS011;3400;48.506;11.692;2023-02-19T08:50:35;0.40;;;0.40;;
6725;SDS011;3400;48.506;11.692;2023-02-19T08:53:03;10.13;;;1.30;;
6725;SDS011;3400;48.506;11.692;2023-02-19T08:55:33;0.63;;;0.63;;
6725;SDS011;3400;48.506;11.692;2023-02-19T08:58:02;1.50;;;1.40;;
6725;SDS011;3400;48.506;11.692;2023-02-19T09:00:32;0.40;;;0.40;;
6725;SDS011;3400;48.506;11.692;2023-02-19T09:02:59;0.77;;;0.77;;
6725;SDS011;3400;48.506;11.692;2023-02-19T09:05:27;0.60;;;0.60;;
6725;SDS011;3400;48.506;11.692;2023-02-19T09:07:55;0.47;;;0.47;;
6725;SDS011;3400;48.506;11.692;2023-02-19T09:10:23;0.50;;;0.50;;
6725;SDS011;3400;48.506;11.692;2023-02-19T09:12:52;0.50;;;0.50;;
6725;SDS011;3400;48.506;11.692;2023-02-19T09:15:20;0.70;;;0.70;;
6725;SDS011;3400;48.506;11.692;2023-02-19T09:17:50;1.53;;;0.60;;
6725;SDS011;3400;48.506;11.692;2023-02-19T09:20:18;0.40;;;0.40;;
6725;SDS011;3400;48.506;11.692;2023-02-19T09:22:46;0.50;;;0.50;;
6725;SDS011;3400;48.506;11.692;2023-02-19T09:25:13;0.43;;;0.43;;
6725;SDS011;3400;48.506;11.692;2023-02-19T09:27:41;0.30;;;0.30;;
6725;SDS011;3400;48.506;11.692;2023-02-19T09:30:11;1.23;;;0.57;;
6725;SDS011;3400;48.506;11.692;2023-02-19T09:32:39;1.10;;;1.00;;
6725;SDS011;3400;48.506;11.692;2023-02-19T09:35:07;1.20;;;1.10;;
6725;SDS011;3400;48.506;11.692;2023-02-19T09:37:35;1.60;;;1.50;;
6725;SDS011;3400;48.506;11.692;2023-02-19T09:40:03;1.63;;;1.20;;
6725;SDS011;3400;48.506;11.692;2023-02-19T09:42:31;1.10;;;1.10;;
6725;SDS011;3400;48.506;11.692;2023-02-19T09:44:59;0.90;;;0.90;;
6725;SDS011;3400;48.506;11.692;2023-02-19T09:47:30;2.10;;;1.10;;
6725;SDS011;3400;48.506;11.692;2023-02-19T09:50:07;1.77;;;1.67;;
6725;SDS011;3400;48.506;11.692;2023-02-19T09:53:20;1.63;;;1.53;;
6725;SDS011;3400;48.506;11.692;2023-02-19T09:55:49;1.97;;;1.20;;
6725;SDS011;3400;48.506;11.692;2023-02-19T09:58:21;1.60;;;1.50;;
6725;SDS011;3400;48.506;11.692;2023-02-19T10:00:52;2.50;;;0.97;;
6725;SDS011;3400;48.506;11.692;2023-02-19T10:03:23;6.53;;;1.03;;
6725;SDS011;3400;48.506;11.692;2023-02-19T10:05:55;1.10;;;1.00;;
6725;SDS011;3400;48.506;11.692;2023-02-19T10:08:23;6.63;;;1.13;;
6725;SDS011;3400;48.506;11.692;2023-02-19T10:10:51;0.70;;;0.70;;
6725;SDS011;3400;48.506;11.692;2023-02-19T10:13:21;1.87;;;0.80;;
6725;SDS011;3400;48.506;11.692;2023-02-19T10:15:50;0.60;;;0.60;;
6725;SDS011;3400;48.506;11.692;2023-02-19T10:18:19;0.53;;;0.53;;
6725;SDS011;3400;48.506;11.692;2023-02-19T10:20:50;0.47;;;0.47;;
6725;SDS011;3400;48.506;11.692;2023-02-19T10:23:18;0.43;;;0.43;;
6725;SDS011;3400;48.506;11.692;2023-02-19T10:25:48;0.60;;;0.60;;
6725;SDS011;3400;48.506;11.692;2023-02-19T10:28:17;0.60;;;0.60;;
6725;SDS011;3400;48.506;11.692;2023-02-19T10:30:47;0.70;;;0.70;;
6725;SDS011;3400;48.506;11.692;2023-02-19T10:33:15;0.87;;;0.60;;
6725;SDS011;3400;48.506;11.692;2023-02-19T10:35:52;0.57;;;0.50;;
6725;SDS011;3400;48.506;11.692;2023-02-19T10:38:21;0.83;;;0.70;;
6725;SDS011;3400;48.506;11.692;2023-02-19T10:40:51;1.63;;;0.80;;
6725;SDS011;3400;48.506;11.692;2023-02-19T10:43:24;0.60;;;0.60;;
6725;SDS011;3400;48.506;11.692;2023-02-19T10:45:57;0.70;;;0.70;;
6725;SDS011;3400;48.506;11.692;2023-02-19T10:48:27;1.17;;;0.70;;
6725;SDS011;3400;48.506;11.692;2023-02-19T10:50:58;0.80;;;0.70;;
6725;SDS011;3400;48.506;11.692;2023-02-19T10:53:39;1.70;;;0.60;;
6725;SDS011;3400;48.506;11.692;2023-02-19T10:56:08;0.97;;;0.70;;
6725;SDS011;3400;48.506;11.692;2023-02-19T10:58:36;0.80;;;0.80;;
6725;SDS011;3400;48.506;11.692;2023-02-19T11:01:14;2.53;;;0.80;;
6725;SDS011;3400;48.506;11.692;2023-02-19T11:03:44;1.43;;;0.83;;
6725;SDS011;3400;48.506;11.692;2023-02-19T11:06:14;0.70;;;0.70;;
6725;SDS011;3400;48.506;11.692;2023-02-19T11:08:47;0.73;;;0.73;;
6725;SDS011;3400;48.506;11.692;2023-02-19T11:11:26;0.60;;;0.60;;
6725;SDS011;3400;48.506;11.692;2023-02-19T11:13:55;2.20;;;0.93;;
6725;SDS011;3400;48.506;11.692;2023-02-19T11:16:23;1.03;;;0.80;;
6725;SDS011;3400;48.506;11.692;2023-02-19T11:19:03;0.70;;;0.70;;
6725;SDS011;3400;48.506;11.692;2023-02-19T11:21:33;0.80;;;0.80;;
6725;SDS011;3400;48.506;11.692;2023-02-19T11:24:00;1.23;;;0.80;;
6725;SDS011;3400;48.506;11.692;2023-02-19T11:26:30;0.73;;;0.73;;
6725;SDS011;3400;48.506;11.692;2023-02-19T11:29:00;0.80;;;0.80;;
6725;SDS011;3400;48.506;11.692;2023-02-19T11:31:29;1.07;;;0.80;;
6725;SDS011;3400;48.506;11.692;2023-02-19T11:33:57;1.10;;;0.70;;
6725;SDS011;3400;48.506;11.692;2023-02-19T11:36:27;0.80;;;0.80;;
6725;SDS011;3400;48.506;11.692;2023-02-19T11:38:56;0.70;;;0.70;;
6725;SDS011;3400;48.506;11.692;2023-02-19T11:44:11;1.27;;;0.90;;
6725;SDS011;3400;48.506;11.692;2023-02-19T11:46:45;1.00;;;0.90;;
6725;SDS011;3400;48.506;11.692;2023-02-19T11:49:20;1.10;;;0.90;;
6725;SDS011;3400;48.506;11.692;2023-02-19T11:51:59;1.33;;;0.70;;
6725;SDS011;3400;48.506;11.692;2023-02-19T11:54:38;0.97;;;0.73;;
6725;SDS011;3400;48.506;11.692;2023-02-19T11:57:08;0.93;;;0.77;;
6725;SDS011;3400;48.506;11.692;2023-02-19T11:59:41;2.90;;;0.70;;
6725;SDS011;3400;48.506;11.692;2023-02-19T12:02:17;1.17;;;0.70;;
6725;SDS011;3400;48.506;11.692;2023-02-19T12:04:55;0.87;;;0.70;;
6725;SDS011;3400;48.506;11.692;2023-02-19T12:07:32;0.90;;;0.70;;
6725;SDS011;3400;48.506;11.692;2023-02-19T12:10:07;1.50;;;0.50;;
6725;SDS011;3400;48.506;11.692;2023-02-19T12:12:45;1.00;;;0.90;;
6725;SDS011;3400;48.506;11.692;2023-02-19T12:15:18;0.70;;;0.70;;
6725;SDS011;3400;48.506;11.692;2023-02-19T12:17:55;3.23;;;0.83;;
6725;SDS011;3400;48.506;11.692;2023-02-19T12:20:28;0.67;;;0.67;;
6725;SDS011;3400;48.506;11.692;2023-02-19T12:23:02;1.63;;;0.80;;
6725;SDS011;3400;48.506;11.692;2023-02-19T12:25:45;1.60;;;0.80;;
6725;SDS011;3400;48.506;11.692;2023-02-19T12:28:17;1.17;;;0.70;;
6725;SDS011;3400;48.506;11.692;2023-02-19T12:33:45;0.60;;;0.60;;
6725;SDS011;3400;48.506;11.692;2023-02-19T12:36:19;0.93;;;0.83;;
6725;SDS011;3400;48.506;11.692;2023-02-19T12:38:50;0.87;;;0.87;;
6725;SDS011;3400;48.506;11.692;2023-02-19T12:41:31;1.67;;;0.90;;
6725;SDS011;3400;48.506;11.692;2023-02-19T12:44:01;0.80;;;0.73;;
6725;SDS011;3400;48.506;11.692;2023-02-19T12:46:31;1.80;;;1.00;;
6725;SDS011;3400;48.506;11.692;2023-02-19T12:49:02;1.63;;;1.30;;
6725;SDS011;3400;48.506;11.692;2023-02-19T12:51:35;2.40;;;1.00;;
6725;SDS011;3400;48.506;11.692;2023-02-19T12:54:05;1.90;;;1.00;;
6725;SDS011;3400;48.506;11.692;2023-02-19T12:56:37;1.23;;;1.13;;
6725;SDS011;3400;48.506;11.692;2023-02-19T12:59:08;1.47;;;0.80;;
6725;SDS011;3400;48.506;11.692;2023-02-19T13:01:38;1.10;;;1.00;;
6725;SDS011;3400;48.506;11.692;2023-02-19T13:04:14;0.93;;;0.90;;
6725;SDS011;3400;48.506;11.692;2023-02-19T13:06:44;1.50;;;0.73;;
6725;SDS011;3400;48.506;11.692;2023-02-19T13:09:14;0.80;;;0.60;;
6725;SDS011;3400;48.506;11.692;2023-02-19T13:11:47;0.80;;;0.80;;
6725;SDS011;3400;48.506;11.692;2023-02-19T13:14:16;1.83;;;0.70;;
6725;SDS011;3400;48.506;11.692;2023-02-19T13:16:47;0.90;;;0.80;;
6725;SDS011;3400;48.506;11.692;2023-02-19T13:19:17;2.83;;;1.10;;
6725;SDS011;3400;48.506;11.692;2023-02-19T13:21:45;2.13;;;1.27;;
6725;SDS011;3400;48.506;11.692;2023-02-19T13:24:36;4.03;;;1.03;;
6725;SDS011;3400;48.506;11.692;2023-02-19T13:27:10;1.70;;;1.10;;
6725;SDS011;3400;48.506;11.692;2023-02-19T13:29:46;1.53;;;1.03;;
6725;SDS011;3400;48.506;11.692;2023-02-19T13:32:25;3.37;;;1.10;;
6725;SDS011;3400;48.506;11.692;2023-02-19T13:34:59;2.37;;;0.93;;
6725;SDS011;3400;48.506;11.692;2023-02-19T13:37:31;0.93;;;0.70;;
6725;SDS011;3400;48.506;11.692;2023-02-19T13:40:02;2.37;;;1.33;;
6725;SDS011;3400;48.506;11.692;2023-02-19T13:42:32;1.00;;;1.00;;
6725;SDS011;3400;48.506;11.692;2023-02-19T13:45:02;4.77;;;2.97;;
6725;SDS011;3400;48.506;11.692;2023-02-19T13:47:47;2.77;;;1.90;;
6725;SDS011;3400;48.506;11.692;2023-02-19T13:50:19;0.93;;;0.83;;
6725;SDS011;3400;48.506;11.692;2023-02-19T13:52:48;2.53;;;1.10;;
6725;SDS011;3400;48.506;11.692;2023-02-19T14:00:52;3.90;;;1.57;;
6725;SDS011;3400;48.506;11.692;2023-02-19T14:03:25;2.70;;;1.63;;
6725;SDS011;3400;48.506;11.692;2023-02-19T14:05:57;3.40;;;1.87;;
6725;SDS011;3400;48.506;11.692;2023-02-19T14:08:45;2.70;;;1.03;;
6725;SDS011;3400;48.506;11.692;2023-02-19T14:11:13;1.27;;;1.00;;
6725;SDS011;3400;48.506;11.692;2023-02-19T14:13:56;1.20;;;0.80;;
6725;SDS011;3400;48.506;11.692;2023-02-19T14:16:47;4.03;;;1.47;;
6725;SDS011;3400;48.506;11.692;2023-02-19T14:21:59;1.40;;;1.00;;
6725;SDS011;3400;48.506;11.692;2023-02-19T14:24:27;1.35;;;0.65;;
6725;SDS011;3400;48.506;11.692;2023-02-19T14:26:55;2.10;;;1.00;;
6725;SDS011;3400;48.506;11.692;2023-02-19T14:29:24;2.50;;;1.00;;
6725;SDS011;3400;48.506;11.692;2023-02-19T14:31:53;1.40;;;1.00;;
6725;SDS011;3400;48.506;11.692;2023-02-19T14:34:22;1.43;;;0.90;;
6725;SDS011;3400;48.506;11.692;2023-02-19T14:36:52;1.10;;;0.80;;
6725;SDS011;3400;48.506;11.692;2023-02-19T14:39:21;1.13;;;0.60;;
6725;SDS011;3400;48.506;11.692;2023-02-19T14:41:55;4.43;;;0.93;;
6725;SDS011;3400;48.506;11.692;2023-02-19T14:44:24;1.30;;;1.10;;
6725;SDS011;3400;48.506;11.692;2023-02-19T14:46:56;1.03;;;0.70;;
6725;SDS011;3400;48.506;11.692;2023-02-19T14:49:28;1.07;;;0.90;;
6725;SDS011;3400;48.506;11.692;2023-02-19T14:52:04;0.73;;;0.73;;
6725;SDS011;3400;48.506;11.692;2023-02-19T14:54:34;2.07;;;0.90;;
6725;SDS011;3400;48.506;11.692;2023-02-19T14:57:04;2.30;;;1.40;;
6725;SDS011;3400;48.506;11.692;2023-02-19T14:59:34;1.57;;;0.80;;
6725;SDS011;3400;48.506;11.692;2023-02-19T15:02:12;1.10;;;0.90;;
6725;SDS011;3400;48.506;11.692;2023-02-19T15:04:40;1.63;;;1.00;;
6725;SDS011;3400;48.506;11.692;2023-02-19T15:07:09;2.87;;;1.10;;
6725;SDS011;3400;48.506;11.692;2023-02-19T15:09:40;1.37;;;1.00;;
6725;SDS011;3400;48.506;11.692;2023-02-19T15:12:13;1.53;;;1.03;;
6725;SDS011;3400;48.506;11.692;2023-02-19T15:14:41;0.90;;;0.90;;
6725;SDS011;3400;48.506;11.692;2023-02-19T15:17:11;1.33;;;0.97;;
6725;SDS011;3400;48.506;11.692;2023-02-19T15:19:41;3.37;;;1.20;;
6725;SDS011;3400;48.506;11.692;2023-02-19T15:22:11;3.90;;;1.37;;
6725;SDS011;3400;48.506;11.692;2023-02-19T15:24:42;1.07;;;0.80;;
6725;SDS011;3400;48.506;11.692;2023-02-19T15:27:11;4.10;;;1.20;;
6725;SDS011;3400;48.506;11.692;2023-02-19T15:29:44;2.53;;;1.20;;
6725;SDS011;3400;48.506;11.692;2023-02-19T15:32:17;2.07;;;1.10;;
6725;SDS011;3400;48.506;11.692;2023-02-19T15:34:53;4.57;;;1.63;;
6725;SDS011;3400;48.506;11.692;2023-02-19T15:37:21;1.00;;;0.90;;
6725;SDS011;3400;48.506;11.692;2023-02-19T15:39:50;3.30;;;1.07;;
6725;SDS011;3400;48.506;11.692;2023-02-19T15:42:21;3.07;;;1.03;;